Time;durP1;ratioP1;P1;durP2;ratioP2;P2;SDS_P1;SDS_P2;PMS_P1;PMS_P2;Temp;Humidity;BMP_temperature;BMP_pressure;BME280_temperature;BME280_humidity;BME280_pressure;Samples;Min_cycle;Max_cycle;Signal;HPM_P1;HPM_P2
2021/05/13 00:02:11;;;;;;;4.10;0.65;;;11.00;94.20;;;;;;4718721;30;20510;-83
2021/05/13 00:04:38;;;;;;;2.92;0.40;;;11.00;94.20;;;;;;4692139;30;20044;-83
2021/05/13 00:07:05;;;;;;;2.58;0.50;;;11.00;94.20;;;;;;4708218;30;20041;-82
2021/05/13 00:09:32;;;;;;;1.60;0.47;;;11.00;94.30;;;;;;4718698;30;20055;-82
2021/05/13 00:12:01;;;;;;;2.83;0.60;;;10.90;94.30;;;;;;4691186;30;20147;-83
2021/05/13 00:14:28;;;;;;;2.40;0.50;;;10.90;94.30;;;;;;4728254;30;20064;-83
2021/05/13 00:16:54;;;;;;;1.98;0.47;;;10.90;94.30;;;;;;4721547;30;20063;-83
2021/05/13 00:19:21;;;;;;;3.35;0.68;;;10.90;94.40;;;;;;4689559;30;20048;-83
2021/05/13 00:21:48;;;;;;;2.85;0.43;;;10.90;94.40;;;;;;4700534;30;20059;-83
2021/05/13 00:24:15;;;;;;;3.80;0.60;;;10.90;94.40;;;;;;4713676;30;20052;-83
2021/05/13 00:26:45;;;;;;;2.88;0.70;;;10.80;94.40;;;;;;4728184;30;20068;-83
2021/05/13 00:29:21;;;;;;;3.00;0.40;;;10.80;94.50;;;;;;4742978;30;20048;-83
2021/05/13 00:31:47;;;;;;;3.70;0.80;;;10.70;94.50;;;;;;4729037;30;20032;-83
2021/05/13 00:34:14;;;;;;;3.85;0.55;;;10.70;94.60;;;;;;4727685;30;20071;-83
2021/05/13 00:36:41;;;;;;;3.60;0.70;;;10.70;94.70;;;;;;4744128;30;20052;-83
2021/05/13 00:39:09;;;;;;;4.00;0.63;;;10.70;94.80;;;;;;4729296;30;20048;-83
2021/05/13 00:41:36;;;;;;;4.40;0.60;;;10.60;95.00;;;;;;4705183;30;20056;-83
2021/05/13 00:44:04;;;;;;;3.15;0.50;;;10.60;95.10;;;;;;4729737;30;20402;-83
2021/05/13 00:46:31;;;;;;;3.80;0.80;;;10.60;95.20;;;;;;4715436;30;20052;-83
2021/05/13 00:49:07;;;;;;;3.03;0.77;;;10.50;95.40;;;;;;4704455;30;20075;-83
2021/05/13 00:51:33;;;;;;;3.40;0.65;;;10.50;95.50;;;;;;4713137;30;20714;-83
2021/05/13 00:54:00;;;;;;;3.55;1.00;;;10.50;95.50;;;;;;4718488;30;20056;-82
2021/05/13 00:56:28;;;;;;;3.85;0.70;;;10.50;95.50;;;;;;4727912;30;20040;-83
2021/05/13 00:58:58;;;;;;;1.77;0.50;;;10.50;95.70;;;;;;4728041;30;20412;-83
2021/05/13 01:01:26;;;;;;;2.47;0.45;;;10.40;95.70;;;;;;4713353;30;20040;-83
2021/05/13 01:03:53;;;;;;;2.10;0.50;;;10.40;95.70;;;;;;4729475;30;20059;-83
2021/05/13 01:06:19;;;;;;;2.60;0.50;;;10.40;95.70;;;;;;4718641;30;20055;-83
2021/05/13 01:08:48;;;;;;;4.47;1.30;;;10.40;95.70;;;;;;4728364;30;20437;-83
2021/05/13 01:11:15;;;;;;;2.25;0.85;;;10.40;95.80;;;;;;4714809;30;20048;-83
2021/05/13 01:14:02;;;;;;;3.10;0.60;;;10.40;95.80;;;;;;4714069;30;20053;-83
2021/05/13 01:16:50;;;;;;;2.88;0.65;;;10.40;95.90;;;;;;4735308;30;20056;-83
2021/05/13 01:19:17;;;;;;;1.98;0.60;;;10.30;95.90;;;;;;4715301;30;20584;-83
2021/05/13 01:21:45;;;;;;;1.83;0.50;;;10.30;95.90;;;;;;4727419;30;20056;-83
2021/05/13 01:24:12;;;;;;;2.47;0.60;;;10.30;95.90;;;;;;4741902;30;20063;-82
2021/05/13 01:26:46;;;;;;;1.73;0.60;;;10.30;95.90;;;;;;4716731;30;20060;-82
2021/05/13 01:29:16;;;;;;;3.50;0.70;;;10.30;96.00;;;;;;4702263;30;20044;-83
2021/05/13 01:31:42;;;;;;;3.55;0.70;;;10.20;95.90;;;;;;4742143;30;20040;-83
2021/05/13 01:34:09;;;;;;;2.45;0.70;;;10.30;96.00;;;;;;4729944;30;20071;-83
2021/05/13 01:36:36;;;;;;;3.90;0.80;;;10.20;96.10;;;;;;4732123;30;20052;-83
2021/05/13 01:39:05;;;;;;;1.92;0.70;;;10.20;96.10;;;;;;4732555;30;20718;-83
2021/05/13 01:41:32;;;;;;;2.63;0.63;;;10.20;96.10;;;;;;4716379;30;20082;-83
2021/05/13 01:43:58;;;;;;;2.92;0.98;;;10.20;96.10;;;;;;4713208;30;20072;-82
2021/05/13 01:46:25;;;;;;;3.25;0.80;;;10.20;96.20;;;;;;4742887;30;20079;-83
2021/05/13 01:48:52;;;;;;;3.47;0.90;;;10.10;96.30;;;;;;4731736;30;20058;-82
2021/05/13 01:51:19;;;;;;;3.80;1.00;;;10.10;96.30;;;;;;4732242;30;20059;-83
2021/05/13 01:53:45;;;;;;;3.63;1.00;;;10.10;96.40;;;;;;4705485;30;20497;-82
2021/05/13 01:56:12;;;;;;;2.70;1.00;;;10.10;96.50;;;;;;4716633;30;20051;-83
2021/05/13 01:58:39;;;;;;;3.58;1.10;;;10.10;96.50;;;;;;4728092;30;20502;-83
2021/05/13 02:01:08;;;;;;;2.50;0.77;;;10.10;96.50;;;;;;4721568;30;20059;-83
2021/05/13 02:03:36;;;;;;;3.97;1.13;;;10.00;96.50;;;;;;4724560;30;20044;-83
2021/05/13 02:06:04;;;;;;;3.90;0.98;;;10.00;96.60;;;;;;4734547;30;20496;-83
2021/05/13 02:08:35;;;;;;;3.38;0.98;;;10.00;96.60;;;;;;4708047;30;20048;-82
2021/05/13 02:11:02;;;;;;;4.10;1.73;;;10.00;96.60;;;;;;4718998;30;20048;-83
2021/05/13 02:13:29;;;;;;;6.57;0.93;;;10.00;96.70;;;;;;4716817;30;20049;-83
2021/05/13 02:15:55;;;;;;;3.47;1.33;;;10.00;96.70;;;;;;4744742;30;20071;-82
2021/05/13 02:18:22;;;;;;;2.95;1.42;;;10.00;96.80;;;;;;4730600;30;20392;-83
2021/05/13 02:20:49;;;;;;;4.80;1.33;;;9.90;96.80;;;;;;4729602;30;20075;-83
2021/05/13 02:23:17;;;;;;;4.63;1.10;;;9.90;96.80;;;;;;4717430;30;20065;-83
2021/05/13 02:25:46;;;;;;;4.85;1.80;;;9.90;96.90;;;;;;4733091;30;20048;-83
2021/05/13 02:28:14;;;;;;;2.08;0.85;;;9.90;97.00;;;;;;4717167;30;20055;-83
2021/05/13 02:30:41;;;;;;;2.83;1.20;;;9.90;97.00;;;;;;4730059;30;20047;-83
2021/05/13 02:33:11;;;;;;;5.47;1.15;;;9.90;97.00;;;;;;4730313;30;20044;-83
2021/05/13 02:35:38;;;;;;;3.05;1.10;;;9.80;97.00;;;;;;4718167;30;20068;-83
2021/05/13 02:38:05;;;;;;;3.30;1.20;;;9.80;97.00;;;;;;4730294;30;20044;-84
2021/05/13 02:40:32;;;;;;;3.25;1.20;;;9.80;97.00;;;;;;4729194;30;20040;-83
2021/05/13 02:43:00;;;;;;;3.75;1.08;;;9.90;97.10;;;;;;4735530;30;20056;-83
2021/05/13 02:45:26;;;;;;;5.03;1.77;;;9.80;97.00;;;;;;4719832;30;20044;-83
2021/05/13 02:47:53;;;;;;;3.63;1.63;;;9.80;97.10;;;;;;4744794;30;20044;-83
2021/05/13 02:50:19;;;;;;;3.45;1.60;;;9.80;97.20;;;;;;4704882;30;20044;-84
2021/05/13 02:52:46;;;;;;;5.00;1.48;;;9.80;97.20;;;;;;4744011;30;20059;-83
2021/05/13 02:55:13;;;;;;;4.40;1.10;;;9.80;97.30;;;;;;4715091;30;20052;-83
2021/05/13 02:57:40;;;;;;;6.28;2.13;;;9.80;97.30;;;;;;4716985;30;20055;-83
2021/05/13 03:00:26;;;;;;;5.47;1.15;;;9.70;97.30;;;;;;4744945;30;20051;-83
2021/05/13 03:02:52;;;;;;;6.47;1.65;;;9.70;97.30;;;;;;4706703;30;20068;-83
2021/05/13 03:05:22;;;;;;;3.28;1.38;;;9.70;97.30;;;;;;4716184;30;20063;-82
2021/05/13 03:07:53;;;;;;;4.47;1.67;;;9.70;97.30;;;;;;4744810;30;20048;-84
2021/05/13 03:10:32;;;;;;;3.03;1.10;;;9.70;97.40;;;;;;4689204;30;20044;-85
2021/05/13 03:12:59;;;;;;;3.83;2.90;;;9.70;97.40;;;;;;4716020;30;20051;-86
2021/05/13 03:15:26;;;;;;;4.63;2.80;;;9.70;97.40;;;;;;4728541;30;20063;-86
2021/05/13 03:17:52;;;;;;;5.18;3.10;;;9.70;97.40;;;;;;4702590;30;20043;-84
2021/05/13 03:20:23;;;;;;;4.18;2.08;;;9.60;97.40;;;;;;4720646;30;20057;-83
2021/05/13 03:22:54;;;;;;;3.50;2.10;;;9.60;97.50;;;;;;4717953;30;20158;-83
2021/05/13 03:25:29;;;;;;;4.88;1.98;;;9.60;97.50;;;;;;4720047;30;20060;-81
2021/05/13 03:28:07;;;;;;;3.65;1.63;;;9.60;97.40;;;;;;4728912;30;20055;-81
2021/05/13 03:30:41;;;;;;;3.10;1.75;;;9.60;97.40;;;;;;4741193;30;20060;-83
2021/05/13 03:33:08;;;;;;;2.67;1.48;;;9.60;97.40;;;;;;4731750;30;20056;-84
2021/05/13 03:35:35;;;;;;;3.60;1.25;;;9.60;97.40;;;;;;4732084;30;20056;-84
2021/05/13 03:38:03;;;;;;;2.80;1.30;;;9.60;97.60;;;;;;4701625;30;20040;-83
2021/05/13 03:40:31;;;;;;;2.60;1.38;;;9.60;97.40;;;;;;4727575;30;20048;-84
2021/05/13 03:42:59;;;;;;;3.10;1.20;;;9.50;97.40;;;;;;4728382;30;20052;-84
2021/05/13 03:45:26;;;;;;;4.28;1.85;;;9.60;97.40;;;;;;4727884;30;20055;-85
2021/05/13 03:47:52;;;;;;;4.40;1.80;;;9.60;97.40;;;;;;4726367;30;20059;-84
2021/05/13 03:50:19;;;;;;;4.35;1.92;;;9.50;97.30;;;;;;4741635;30;20048;-85
2021/05/13 03:52:45;;;;;;;4.43;1.70;;;9.50;97.40;;;;;;4718672;30;20048;-84
2021/05/13 03:55:13;;;;;;;2.95;2.00;;;9.50;97.40;;;;;;4731631;30;20628;-83
2021/05/13 03:57:41;;;;;;;5.15;2.08;;;9.50;97.40;;;;;;4744898;30;20036;-84
2021/05/13 04:00:11;;;;;;;4.28;2.38;;;9.50;97.40;;;;;;4744411;30;20501;-84
2021/05/13 04:02:38;;;;;;;4.93;2.42;;;9.50;97.40;;;;;;4741601;30;20052;-84
2021/05/13 04:05:05;;;;;;;5.13;2.47;;;9.50;97.70;;;;;;4727408;30;20056;-84
2021/05/13 04:07:35;;;;;;;5.15;2.63;;;9.50;97.70;;;;;;4728484;30;20143;-84
2021/05/13 04:10:05;;;;;;;6.10;3.17;;;9.50;97.60;;;;;;4727923;30;20071;-84
2021/05/13 04:12:32;;;;;;;4.63;1.77;;;9.60;97.60;;;;;;4729331;30;20036;-85
2021/05/13 04:14:59;;;;;;;5.57;2.60;;;9.60;97.60;;;;;;4728088;30;20044;-84
2021/05/13 04:17:27;;;;;;;6.35;2.55;;;9.60;97.70;;;;;;4716018;30;20047;-84
2021/05/13 04:19:53;;;;;;;3.83;2.58;;;9.60;97.70;;;;;;4704302;30;20044;-83
2021/05/13 04:22:20;;;;;;;6.30;3.40;;;9.60;97.70;;;;;;4727841;30;20051;-83
2021/05/13 04:24:47;;;;;;;4.13;2.63;;;9.70;97.70;;;;;;4742142;30;20055;-83
2021/05/13 04:27:13;;;;;;;5.03;2.65;;;9.60;97.70;;;;;;4714522;30;20063;-83
2021/05/13 04:29:40;;;;;;;9.07;4.72;;;9.70;97.70;;;;;;4700780;30;20501;-83
2021/05/13 04:32:06;;;;;;;7.20;4.80;;;9.70;97.80;;;;;;4714343;30;20512;-83
2021/05/13 04:34:33;;;;;;;5.85;4.13;;;9.80;98.00;;;;;;4716393;30;20048;-83
2021/05/13 04:36:59;;;;;;;6.28;4.10;;;9.80;98.00;;;;;;4716738;30;20044;-83
2021/05/13 04:39:26;;;;;;;5.72;4.50;;;9.90;98.10;;;;;;4713225;30;20047;-83
2021/05/13 04:41:52;;;;;;;6.32;3.85;;;10.00;98.10;;;;;;4699083;30;20060;-83
2021/05/13 04:44:19;;;;;;;6.22;4.03;;;10.10;98.10;;;;;;4685079;30;20063;-83
2021/05/13 04:46:45;;;;;;;7.00;4.25;;;10.10;98.10;;;;;;4713852;30;20059;-83
2021/05/13 04:49:16;;;;;;;7.32;4.13;;;10.20;98.10;;;;;;4714939;30;20610;-83
2021/05/13 04:51:46;;;;;;;5.07;3.60;;;10.30;98.10;;;;;;4728161;30;20040;-83
2021/05/13 04:54:14;;;;;;;5.50;4.15;;;10.40;98.10;;;;;;4727075;30;20036;-83
2021/05/13 04:56:41;;;;;;;6.82;3.92;;;10.50;98.10;;;;;;4715691;30;20527;-83
2021/05/13 04:59:07;;;;;;;5.53;4.95;;;10.60;98.00;;;;;;4702728;30;20105;-83
2021/05/13 05:01:34;;;;;;;6.65;4.70;;;10.70;98.00;;;;;;4727956;30;20503;-84
2021/05/13 05:04:01;;;;;;;8.60;5.30;;;10.80;98.00;;;;;;4729940;30;20063;-83
2021/05/13 05:06:28;;;;;;;8.43;5.57;;;10.90;98.20;;;;;;4714162;30;20059;-84
2021/05/13 05:08:55;;;;;;;7.78;6.18;;;11.10;97.90;;;;;;4715048;30;20501;-83
2021/05/13 05:11:22;;;;;;;10.15;7.63;;;11.20;97.90;;;;;;4725726;30;20412;-83
2021/05/13 05:13:49;;;;;;;12.23;7.28;;;11.30;97.90;;;;;;4727838;30;20425;-83
2021/05/13 05:16:17;;;;;;;10.63;7.97;;;11.40;97.90;;;;;;4714511;30;20040;-84
2021/05/13 05:18:43;;;;;;;9.50;7.68;;;11.50;97.90;;;;;;4713678;30;20048;-83
2021/05/13 05:21:10;;;;;;;9.90;8.18;;;11.60;97.90;;;;;;4729149;30;20044;-83
2021/05/13 05:23:38;;;;;;;9.63;6.57;;;11.80;97.90;;;;;;4730818;30;20052;-85
2021/05/13 05:26:05;;;;;;;11.10;7.53;;;11.90;97.80;;;;;;4715852;30;20060;-84
2021/05/13 05:28:32;;;;;;;10.82;7.75;;;12.00;97.70;;;;;;4705177;30;20040;-84
2021/05/13 05:30:59;;;;;;;7.90;6.13;;;12.10;97.60;;;;;;4716354;30;20056;-84
2021/05/13 05:33:25;;;;;;;8.15;6.32;;;12.30;97.50;;;;;;4727585;30;20529;-84
2021/05/13 05:35:52;;;;;;;9.70;7.20;;;12.40;97.40;;;;;;4716217;30;20413;-84
2021/05/13 05:38:19;;;;;;;12.32;8.82;;;12.50;97.30;;;;;;4708612;30;20047;-84
2021/05/13 05:40:47;;;;;;;11.82;8.27;;;12.70;97.20;;;;;;4731321;30;20507;-84
2021/05/13 05:43:14;;;;;;;13.55;9.98;;;12.80;97.10;;;;;;4712863;30;20511;-84
2021/05/13 05:45:42;;;;;;;12.68;9.43;;;12.90;97.00;;;;;;4737920;30;20056;-84
2021/05/13 05:48:08;;;;;;;11.10;8.10;;;13.10;96.90;;;;;;4730115;30;20055;-84
2021/05/13 05:50:38;;;;;;;10.13;7.05;;;13.20;96.80;;;;;;4707919;30;20055;-84
2021/05/13 05:53:06;;;;;;;14.80;10.00;;;13.40;96.60;;;;;;4745883;30;20052;-83
2021/05/13 05:55:33;;;;;;;14.18;8.52;;;13.50;96.40;;;;;;4716370;30;20063;-83
2021/05/13 05:58:01;;;;;;;12.95;8.23;;;13.60;96.20;;;;;;4716020;30;20040;-84
2021/05/13 06:00:28;;;;;;;15.15;12.00;;;13.70;96.10;;;;;;4729045;30;20040;-84
2021/05/13 06:02:54;;;;;;;14.52;10.23;;;13.80;95.70;;;;;;4730125;30;20132;-86
2021/05/13 06:05:21;;;;;;;12.77;8.90;;;13.90;95.60;;;;;;4688156;30;20048;-83
2021/05/13 06:07:48;;;;;;;13.07;9.48;;;14.00;95.50;;;;;;4717667;30;20052;-83
2021/05/13 06:10:15;;;;;;;12.95;7.75;;;14.10;95.60;;;;;;4702560;30;20140;-82
2021/05/13 06:12:43;;;;;;;9.10;7.82;;;14.20;95.30;;;;;;4746048;30;20043;-82
2021/05/13 06:15:13;;;;;;;11.02;7.90;;;14.50;95.10;;;;;;4700846;30;20067;-82
2021/05/13 06:17:40;;;;;;;10.43;7.50;;;14.60;94.80;;;;;;4730084;30;20094;-82
2021/05/13 06:20:15;;;;;;;9.30;7.80;;;14.80;94.60;;;;;;4743159;30;20063;-82
2021/05/13 06:22:41;;;;;;;13.93;9.88;;;14.90;94.40;;;;;;4744563;30;20059;-81
2021/05/13 06:25:08;;;;;;;12.48;9.45;;;15.00;94.20;;;;;;4703526;30;20044;-82
2021/05/13 06:27:35;;;;;;;11.82;8.70;;;15.20;93.90;;;;;;4717736;30;20048;-82
2021/05/13 06:30:02;;;;;;;10.18;9.15;;;15.40;93.60;;;;;;4730073;30;20048;-83
2021/05/13 06:32:28;;;;;;;9.60;7.72;;;15.60;93.40;;;;;;4730011;30;20040;-83
2021/05/13 06:34:55;;;;;;;15.35;13.38;;;15.80;93.20;;;;;;4714374;30;20047;-83
2021/05/13 06:37:21;;;;;;;12.07;9.65;;;16.20;92.30;;;;;;4730539;30;20048;-82
2021/05/13 06:39:47;;;;;;;11.23;8.98;;;16.30;91.70;;;;;;4718985;30;20493;-82
2021/05/13 06:42:15;;;;;;;9.00;6.97;;;16.40;91.60;;;;;;4734175;30;20055;-82
2021/05/13 06:44:43;;;;;;;11.15;7.85;;;16.50;91.30;;;;;;4716591;30;20040;-82
2021/05/13 06:47:13;;;;;;;12.88;8.70;;;16.50;91.10;;;;;;4716375;30;20044;-82
2021/05/13 06:49:40;;;;;;;11.10;9.00;;;16.60;91.10;;;;;;4702490;30;20389;-82
2021/05/13 06:52:07;;;;;;;13.93;9.25;;;16.80;90.90;;;;;;4744058;30;20056;-82
2021/05/13 06:54:34;;;;;;;12.23;8.85;;;17.00;90.70;;;;;;4745103;30;20052;-82
2021/05/13 06:57:01;;;;;;;13.57;11.60;;;17.00;90.00;;;;;;4746410;30;20052;-82
2021/05/13 06:59:27;;;;;;;14.18;10.55;;;16.90;89.50;;;;;;4719947;30;20059;-82
2021/05/13 07:01:56;;;;;;;13.15;11.52;;;16.80;89.30;;;;;;4733009;30;20047;-83
2021/05/13 07:04:24;;;;;;;13.43;10.38;;;16.70;89.40;;;;;;4732420;30;20059;-82
2021/05/13 07:06:51;;;;;;;11.90;9.85;;;16.60;89.50;;;;;;4730544;30;20576;-82
2021/05/13 07:09:17;;;;;;;14.02;12.52;;;16.60;90.00;;;;;;4729771;30;20509;-82
2021/05/13 07:11:44;;;;;;;12.18;10.15;;;16.60;89.20;;;;;;4733665;30;20131;-82
2021/05/13 07:14:11;;;;;;;20.52;14.10;;;16.60;89.30;;;;;;4729718;30;20048;-83
2021/05/13 07:16:37;;;;;;;12.95;11.00;;;16.60;89.00;;;;;;4715731;30;20060;-83
2021/05/13 07:19:05;;;;;;;19.63;15.30;;;16.60;89.00;;;;;;4707999;30;20048;-82
2021/05/13 07:21:33;;;;;;;12.10;10.85;;;16.70;88.80;;;;;;4736657;30;20077;-82
2021/05/13 07:24:01;;;;;;;13.98;10.57;;;16.70;88.50;;;;;;4745378;30;20501;-83
2021/05/13 07:26:28;;;;;;;13.38;11.45;;;16.80;88.50;;;;;;4720805;30;20052;-83
2021/05/13 07:28:54;;;;;;;16.15;14.45;;;16.90;88.10;;;;;;4730026;30;20062;-83
2021/05/13 07:31:21;;;;;;;15.80;13.93;;;17.00;87.40;;;;;;4706454;30;20048;-83
2021/05/13 07:33:48;;;;;;;16.67;13.35;;;17.10;86.80;;;;;;4746569;30;20084;-89
2021/05/13 07:36:15;;;;;;;18.73;16.45;;;17.10;86.20;;;;;;4700745;30;20044;-82
2021/05/13 07:38:41;;;;;;;14.32;12.80;;;17.10;86.30;;;;;;4704423;30;20059;-82
2021/05/13 07:41:08;;;;;;;14.93;12.98;;;17.20;85.60;;;;;;4701351;30;20067;-82
2021/05/13 07:43:36;;;;;;;14.00;11.82;;;17.20;85.50;;;;;;4703469;30;20497;-86
2021/05/13 07:46:04;;;;;;;12.90;10.35;;;17.20;85.50;;;;;;4746804;30;20416;-86
2021/05/13 07:48:32;;;;;;;13.88;12.35;;;17.40;85.60;;;;;;4708658;30;20051;-85
2021/05/13 07:50:58;;;;;;;16.58;12.60;;;17.60;85.30;;;;;;4750545;30;20043;-85
2021/05/13 07:53:26;;;;;;;15.48;13.82;;;17.70;84.50;;;;;;4712036;30;20052;-85
2021/05/13 07:55:53;;;;;;;14.70;13.25;;;17.80;83.60;;;;;;4735715;30;20048;-85
2021/05/13 07:58:20;;;;;;;19.38;16.05;;;17.90;83.30;;;;;;4730550;30;20032;-85
2021/05/13 08:00:47;;;;;;;16.50;14.80;;;18.00;82.00;;;;;;4720331;30;20047;-85
2021/05/13 08:03:14;;;;;;;12.88;10.60;;;18.00;81.50;;;;;;4734803;30;20032;-83
2021/05/13 08:05:40;;;;;;;12.95;11.57;;;18.00;81.80;;;;;;4703021;30;20071;-84
2021/05/13 08:08:07;;;;;;;16.55;13.02;;;18.10;81.30;;;;;;4722661;30;20484;-82
2021/05/13 08:10:33;;;;;;;12.75;11.32;;;18.20;80.90;;;;;;4745096;30;20381;-83
2021/05/13 08:13:00;;;;;;;11.95;10.57;;;18.30;80.60;;;;;;4716559;30;20044;-82
2021/05/13 08:15:26;;;;;;;14.85;12.32;;;18.50;80.10;;;;;;4715902;30;20044;-81
2021/05/13 08:17:53;;;;;;;14.60;13.20;;;18.60;79.20;;;;;;4744783;30;20044;-81
2021/05/13 08:20:20;;;;;;;13.25;11.60;;;18.70;78.40;;;;;;4744794;30;20051;-84
2021/05/13 08:22:48;;;;;;;17.23;13.93;;;18.80;78.10;;;;;;4723226;30;20044;-84
2021/05/13 08:25:19;;;;;;;19.73;14.70;;;18.90;77.40;;;;;;4746002;30;20067;-83
2021/05/13 08:27:49;;;;;;;14.55;13.13;;;19.00;75.30;;;;;;4721516;30;20040;-86
2021/05/13 08:30:17;;;;;;;15.38;13.80;;;19.00;75.80;;;;;;4739599;30;20044;-84
2021/05/13 08:32:43;;;;;;;14.80;12.43;;;19.10;75.70;;;;;;4738728;30;20056;-83
2021/05/13 08:35:12;;;;;;;12.82;11.40;;;19.20;75.10;;;;;;4733613;30;20056;-83
2021/05/13 08:37:39;;;;;;;14.02;12.55;;;19.40;75.40;;;;;;4747535;30;20039;-87
2021/05/13 08:40:07;;;;;;;11.40;10.23;;;19.50;75.00;;;;;;4709492;30;20056;-84
2021/05/13 08:42:34;;;;;;;12.90;11.48;;;19.70;75.00;;;;;;4745544;30;20063;-87
2021/05/13 08:45:01;;;;;;;16.02;13.10;;;19.80;74.00;;;;;;4722578;30;20044;-86
2021/05/13 08:47:27;;;;;;;15.68;14.00;;;19.90;72.70;;;;;;4715842;30;20052;-87
2021/05/13 08:49:54;;;;;;;11.65;10.55;;;20.00;70.60;;;;;;4716290;30;20491;-87
2021/05/13 08:52:21;;;;;;;15.05;13.00;;;19.90;70.80;;;;;;4707893;30;20051;-87
2021/05/13 08:54:56;;;;;;;12.57;9.88;;;20.00;70.30;;;;;;4692730;30;20052;-86
2021/05/13 08:57:24;;;;;;;11.77;10.57;;;20.00;70.20;;;;;;4723770;30;20572;-87
2021/05/13 08:59:51;;;;;;;17.15;15.32;;;20.00;69.90;;;;;;4714025;30;20063;-88
2021/05/13 09:02:19;;;;;;;13.85;11.93;;;20.10;70.00;;;;;;4729959;30;20052;-84
2021/05/13 09:04:48;;;;;;;13.43;12.05;;;20.20;70.10;;;;;;4696891;30;20060;-90
2021/05/13 09:07:21;;;;;;;16.17;14.57;;;20.40;70.30;;;;;;4745531;30;20048;-84
2021/05/13 09:09:54;;;;;;;16.98;13.77;;;20.50;69.00;;;;;;4744479;30;20059;-84
2021/05/13 09:12:22;;;;;;;13.77;11.70;;;20.60;68.40;;;;;;4744666;30;20067;-83
2021/05/13 09:15:00;;;;;;;14.80;13.15;;;20.70;68.20;;;;;;4751795;30;20048;-81
2021/05/13 09:17:28;;;;;;;10.75;9.25;;;20.80;67.50;;;;;;4724097;30;20500;-80
2021/05/13 09:19:56;;;;;;;14.48;12.95;;;20.90;67.40;;;;;;4736576;30;20055;-82
2021/05/13 09:22:25;;;;;;;16.00;14.07;;;21.00;67.70;;;;;;4735852;30;20062;-81
2021/05/13 09:25:00;;;;;;;17.52;14.32;;;21.20;67.10;;;;;;4751393;30;20047;-81
2021/05/13 09:27:48;;;;;;;11.63;9.88;;;21.40;66.30;;;;;;4751918;30;20040;-81
2021/05/13 09:30:24;;;;;;;14.35;11.45;;;21.50;66.60;;;;;;4735289;30;20048;-81
2021/05/13 09:32:53;;;;;;;13.60;12.15;;;21.60;66.30;;;;;;4741158;30;20036;-81
2021/05/13 09:35:22;;;;;;;13.40;12.00;;;21.80;66.40;;;;;;4735273;30;20526;-80
2021/05/13 09:37:51;;;;;;;11.55;10.35;;;22.00;66.10;;;;;;4749857;30;20055;-81
2021/05/13 09:40:39;;;;;;;11.93;10.43;;;22.20;65.80;;;;;;4747756;30;20059;-81
2021/05/13 09:43:11;;;;;;;13.05;11.55;;;22.50;65.10;;;;;;4721092;30;20047;-81
2021/05/13 09:45:45;;;;;;;;;;;22.60;64.00;;;;;;4733421;30;20067;-80
2021/05/13 09:48:11;;;;;;;11.25;9.98;;;22.70;64.30;;;;;;4731976;30;19922;-81
2021/05/13 09:50:38;;;;;;;9.52;8.40;;;22.90;62.90;;;;;;4747895;30;20044;-81
2021/05/13 09:53:04;;;;;;;13.57;11.50;;;23.10;62.90;;;;;;4739360;30;20051;-81
2021/05/13 09:55:33;;;;;;;10.57;8.88;;;23.30;61.60;;;;;;4749026;30;20408;-77
2021/05/13 09:58:06;;;;;;;10.80;9.70;;;23.50;61.90;;;;;;4749252;30;20396;-76
2021/05/13 10:00:47;;;;;;;10.07;7.93;;;23.80;61.50;;;;;;4734246;30;20057;-78
2021/05/13 10:03:19;;;;;;;6.68;5.50;;;24.10;59.00;;;;;;4734388;30;20063;-78
2021/05/13 10:05:52;;;;;;;7.70;6.90;;;24.10;57.40;;;;;;4733745;30;20408;-81
2021/05/13 10:08:19;;;;;;;5.88;5.28;;;24.00;56.20;;;;;;4723647;30;20044;-82
2021/05/13 10:10:47;;;;;;;8.50;6.30;;;23.90;56.30;;;;;;4712406;30;20051;-82
2021/05/13 10:13:18;;;;;;;8.02;4.53;;;23.90;55.80;;;;;;4749581;30;20056;-83
2021/05/13 10:15:45;;;;;;;7.50;6.00;;;24.00;54.80;;;;;;4743430;30;20037;-82
2021/05/13 10:18:23;;;;;;;6.47;4.30;;;24.10;54.30;;;;;;4739201;30;20059;-81
2021/05/13 10:21:05;;;;;;;5.68;3.88;;;24.30;53.60;;;;;;4734993;30;20056;-82
2021/05/13 10:23:33;;;;;;;5.65;4.00;;;24.20;51.00;;;;;;4717959;30;20502;-82
2021/05/13 10:26:02;;;;;;;6.57;4.00;;;23.90;51.70;;;;;;4731914;30;20628;-81
2021/05/13 10:28:33;;;;;;;7.72;5.88;;;23.70;53.80;;;;;;4732162;30;20277;-81
2021/05/13 10:31:06;;;;;;;8.57;7.53;;;23.60;53.80;;;;;;4722502;30;20043;-80
2021/05/13 10:33:58;;;;;;;7.70;5.28;;;23.80;52.70;;;;;;4748527;30;20047;-81
2021/05/13 10:36:25;;;;;;;4.40;2.65;;;24.00;51.90;;;;;;4720333;30;20056;-81
2021/05/13 10:38:55;;;;;;;4.82;3.55;;;24.20;49.50;;;;;;4721662;30;20052;-79
2021/05/13 10:41:36;;;;;;;5.85;4.03;;;24.50;49.90;;;;;;4722311;30;20044;-82
2021/05/13 10:44:11;;;;;;;6.07;3.60;;;24.90;50.40;;;;;;4724087;30;20040;-82
2021/05/13 10:46:50;;;;;;;6.38;4.53;;;25.20;49.70;;;;;;4731070;30;20928;-83
2021/05/13 10:49:25;;;;;;;6.45;4.88;;;25.40;49.50;;;;;;4744532;30;20052;-82
2021/05/13 10:52:12;;;;;;;7.75;5.20;;;25.50;48.80;;;;;;4730421;30;20043;-81
2021/05/13 10:54:44;;;;;;;5.45;4.47;;;25.60;48.80;;;;;;4733349;30;20052;-83
2021/05/13 10:57:20;;;;;;;6.85;4.25;;;25.70;49.40;;;;;;4730677;30;20033;-83
2021/05/13 11:00:08;;;;;;;5.72;3.38;;;25.90;48.10;;;;;;4730302;30;20055;-82
2021/05/13 11:02:39;;;;;;;4.38;1.40;;;26.00;48.10;;;;;;4720604;30;20075;-82
2021/05/13 11:05:33;;;;;;;4.00;2.13;;;26.30;45.10;;;;;;4709875;30;20059;-82
2021/05/13 11:08:06;;;;;;;3.00;1.05;;;26.70;44.30;;;;;;4716820;30;20055;-81
2021/05/13 11:10:51;;;;;;;5.55;3.70;;;27.20;41.70;;;;;;4743876;30;20055;-81
2021/05/13 11:13:19;;;;;;;8.80;3.75;;;27.50;42.70;;;;;;4719580;30;20044;-82
2021/05/13 11:15:48;;;;;;;4.78;3.30;;;27.60;42.70;;;;;;4730914;30;20059;-80
2021/05/13 11:18:17;;;;;;;4.57;2.58;;;27.70;43.30;;;;;;4746242;30;20043;-81
2021/05/13 11:20:44;;;;;;;5.43;2.78;;;27.80;43.70;;;;;;4729559;30;20051;-80
2021/05/13 11:23:21;;;;;;;6.97;3.30;;;28.10;43.20;;;;;;4746874;30;20051;-79
2021/05/13 11:25:52;;;;;;;7.45;3.83;;;27.80;42.40;;;;;;4728643;30;20055;-79
2021/05/13 11:28:43;;;;;;;4.70;3.58;;;27.10;43.00;;;;;;4702805;30;20501;-80
2021/05/13 11:31:13;;;;;;;3.45;2.92;;;26.50;43.40;;;;;;4727188;30;20040;-80
2021/05/13 11:34:11;;;;;;;6.88;4.47;;;25.90;44.20;;;;;;4716322;30;20579;-80
2021/05/13 11:36:39;;;;;;;3.88;3.13;;;25.30;44.30;;;;;;4721252;30;20075;-81
2021/05/13 11:39:16;;;;;;;4.22;3.40;;;24.80;45.50;;;;;;4730615;30;20040;-81
2021/05/13 11:41:45;;;;;;;3.53;2.40;;;24.50;46.50;;;;;;4729899;30;20059;-81
2021/05/13 11:44:12;;;;;;;7.18;4.35;;;24.80;46.20;;;;;;4737925;30;20120;-79
2021/05/13 11:46:40;;;;;;;7.15;4.40;;;25.30;44.90;;;;;;4745471;30;20786;-80
2021/05/13 11:49:07;;;;;;;6.75;4.07;;;25.40;44.30;;;;;;4744931;30;20059;-85
2021/05/13 11:51:35;;;;;;;5.50;2.90;;;25.10;44.80;;;;;;4743965;30;20044;-85
2021/05/13 11:54:07;;;;;;;7.38;4.97;;;24.90;45.90;;;;;;4706809;30;20048;-86
2021/05/13 11:56:36;;;;;;;4.68;3.28;;;25.00;45.40;;;;;;4730004;30;20064;-84
2021/05/13 11:59:08;;;;;;;6.82;3.25;;;24.90;45.30;;;;;;4734004;30;20067;-83
2021/05/13 12:01:40;;;;;;;5.03;2.97;;;24.80;45.90;;;;;;4732706;30;20048;-81
2021/05/13 12:04:06;;;;;;;6.10;3.50;;;24.30;45.90;;;;;;4730382;30;20048;-80
2021/05/13 12:06:57;;;;;;;6.22;3.28;;;23.80;46.30;;;;;;4735844;30;20059;-77
2021/05/13 12:09:25;;;;;;;6.05;4.00;;;23.90;47.30;;;;;;4743969;30;20505;-80
2021/05/13 12:11:53;;;;;;;4.53;2.50;;;24.60;45.90;;;;;;4713769;30;20040;-79
2021/05/13 12:14:26;;;;;;;9.75;3.95;;;24.90;45.50;;;;;;4743827;30;20047;-79
2021/05/13 12:16:54;;;;;;;8.32;5.60;;;24.70;45.00;;;;;;4743904;30;20059;-79
2021/05/13 12:19:21;;;;;;;5.82;2.78;;;24.50;45.20;;;;;;4729227;30;20051;-79
2021/05/13 12:21:52;;;;;;;5.75;3.90;;;24.20;45.70;;;;;;4743661;30;20055;-79
2021/05/13 12:24:35;;;;;;;4.47;2.75;;;24.00;45.30;;;;;;4729149;30;20052;-85
2021/05/13 12:27:13;;;;;;;;;;;23.60;46.30;;;;;;4736988;30;20067;-91
2021/05/13 12:29:41;;;;;;;5.25;3.33;;;23.50;47.00;;;;;;4719182;30;20359;-88
2021/05/13 12:32:08;;;;;;;4.70;2.53;;;23.40;46.50;;;;;;4734065;30;20040;-82
2021/05/13 12:34:37;;;;;;;5.13;2.92;;;23.40;46.90;;;;;;4744336;30;20055;-81
2021/05/13 12:37:05;;;;;;;4.43;2.22;;;23.50;47.20;;;;;;4743588;30;20048;-84
2021/05/13 12:39:37;;;;;;;5.82;2.40;;;24.00;47.30;;;;;;4730313;30;20048;-86
2021/05/13 12:42:25;;;;;;;4.72;2.85;;;25.10;45.70;;;;;;4717577;30;20598;-82
2021/05/13 12:45:21;;;;;;;5.18;3.13;;;26.30;43.80;;;;;;4727797;30;20056;-81
2021/05/13 12:48:03;;;;;;;8.77;3.00;;;27.80;41.20;;;;;;4728840;30;20052;-80
2021/05/13 12:50:31;;;;;;;5.15;2.50;;;28.70;39.80;;;;;;4740260;30;20044;-80
2021/05/13 12:53:19;;;;;;;4.07;1.70;;;29.50;38.40;;;;;;4728541;30;20055;-80
2021/05/13 12:55:47;;;;;;;6.82;2.30;;;30.20;37.30;;;;;;4743042;30;20044;-79